CA33 weather

County Medical Center Heliport
San Jose, California, United States

Public forecast

Using degrees Fahrenheit for public forecast. Weather courtesy of forecast.io.

Closest aviation weather report (METAR) to County Medical Center Heliport

Closest report is Norman Y. Mineta San Jose International Airport, 2.9 nm (5.4 km) N. Retrieved 2019/10/19 08:53 UTC (37 minutes ago):

KSJC 190853Z AUTO 16003KT 10SM CLR 11/07 A3009 RMK AO2 SLP188 T01060072 58004

Closest aviation forecast (TAF) to County Medical Center Heliport

Closest forecast is Norman Y. Mineta San Jose International Airport, 2.9 nm (5.4 km) N. Retrieved 2019/10/19 06:52 UTC (3 hours ago):

TAF KSJC 190550Z 1906/2006 VRB03KT P6SM FEW035 BKN080 FM191800 31010KT P6SM SCT040 SCT100 FM200400 33005KT P6SM FEW040